Hlavní strana
METAR-TAF:

METAR-TAF

Letiště :

Ibiza, Španělsko

zeměpisná šířka: 38-52N, zeměpisná délka: 001-23E, výška: 7 m

Aktuální stav počasí

Zpráva byla vytvořena před 20 minutami, v 04:30 UTC
Severoseverovýchodní vítr 8 kt, proměnlivý mezi severoseverozápadním a severovýchodním
Teplota 20°C
Vlhkost vzduchu 73%
Tlak 1024 hPa
Viditelnost 10 km a více
Žádná oblačnost pod 1500 m, nevyskytují se cumulonimby.

METAR: LEIB 260430Z 02008KT 340V050 CAVOK 20/15 Q1024 NOSIG

Čas: 06:50 (04:50 UTC)

Předpověď počasí

Zpráva byla vytvořena před 2 hodinami a 50 minutami, v 02:00 UTC
Předpověď platná od 26 v 03 UTC do 27 v 03 UTC
Severoseverovýchodní vítr 6 kt
Viditelnost 10 km a více
Žádná oblačnost pod 1500 m, nevyskytují se cumulonimby.
Změna
od 26 v 06 UTC do 26 v 08 UTC
Východní vítr 12 kt
Změna
od 26 v 19 UTC do 26 v 21 UTC
Severoseverovýchodní vítr 6 kt

TAF: LEIB 260200Z 2603/2703 03006KT CAVOK TX26/2612Z TN16/2606Z BECMG 2606/2608 09012KT BECMG 2619/2621 03006KT

Stav a předpovědi počasí z více než 4 000 letišť (zprávy METAR a TAF).

Červené a žluté tečky na mapě představují dostupné meteorologické stanice.

Když kurzor umístíte na tečku, zobrazí se název stanice.

Pak kliknutím zobrazíte stav a předpověď počasí.

Chcete-li změnit mapu, kliknutím na zelené tlačítko se znaménkem +mapu přiblížíte, kliknutím na zelené tlačítko se znaménkem – mapu oddálíte a kliknutím na zelené šipky přejdete na sousední mapy.


METAR-TAF: